sensor_id;sensor_type;location;lat;lon;timestamp;P1;durP1;ratioP1;P2;durP2;ratioP2
5833;SDS011;2943;48.012;10.968;2022-08-25T00:00:58;5.27;;;4.77;;
5833;SDS011;2943;48.012;10.968;2022-08-25T00:03:25;6.83;;;5.47;;
5833;SDS011;2943;48.012;10.968;2022-08-25T00:05:52;6.07;;;4.93;;
5833;SDS011;2943;48.012;10.968;2022-08-25T00:08:19;6.17;;;4.93;;
5833;SDS011;2943;48.012;10.968;2022-08-25T00:10:46;9.07;;;5.33;;
5833;SDS011;2943;48.012;10.968;2022-08-25T00:13:14;7.40;;;5.30;;
5833;SDS011;2943;48.012;10.968;2022-08-25T00:15:41;9.20;;;5.13;;
5833;SDS011;2943;48.012;10.968;2022-08-25T00:18:07;12.20;;;5.10;;
5833;SDS011;2943;48.012;10.968;2022-08-25T00:20:34;6.27;;;5.67;;
5833;SDS011;2943;48.012;10.968;2022-08-25T00:23:01;6.73;;;6.03;;
5833;SDS011;2943;48.012;10.968;2022-08-25T00:25:28;10.23;;;5.80;;
5833;SDS011;2943;48.012;10.968;2022-08-25T00:27:55;7.07;;;5.70;;
5833;SDS011;2943;48.012;10.968;2022-08-25T00:30:24;6.23;;;5.60;;
5833;SDS011;2943;48.012;10.968;2022-08-25T00:32:51;6.10;;;5.23;;
5833;SDS011;2943;48.012;10.968;2022-08-25T00:35:17;7.50;;;6.10;;
5833;SDS011;2943;48.012;10.968;2022-08-25T00:37:44;5.67;;;5.17;;
5833;SDS011;2943;48.012;10.968;2022-08-25T00:40:11;6.10;;;5.50;;
5833;SDS011;2943;48.012;10.968;2022-08-25T00:42:38;5.63;;;5.13;;
5833;SDS011;2943;48.012;10.968;2022-08-25T00:45:06;7.37;;;6.00;;
5833;SDS011;2943;48.012;10.968;2022-08-25T00:47:35;8.77;;;5.30;;
5833;SDS011;2943;48.012;10.968;2022-08-25T00:50:03;8.47;;;5.90;;
5833;SDS011;2943;48.012;10.968;2022-08-25T00:52:35;7.50;;;5.57;;
5833;SDS011;2943;48.012;10.968;2022-08-25T00:55:05;6.30;;;5.70;;
5833;SDS011;2943;48.012;10.968;2022-08-25T00:57:40;6.03;;;5.53;;
5833;SDS011;2943;48.012;10.968;2022-08-25T01:00:13;7.40;;;6.70;;
5833;SDS011;2943;48.012;10.968;2022-08-25T01:02:44;6.40;;;5.80;;
5833;SDS011;2943;48.012;10.968;2022-08-25T01:05:11;6.63;;;5.93;;
5833;SDS011;2943;48.012;10.968;2022-08-25T01:07:39;6.20;;;5.60;;
5833;SDS011;2943;48.012;10.968;2022-08-25T01:10:08;6.43;;;5.73;;
5833;SDS011;2943;48.012;10.968;2022-08-25T01:12:37;7.17;;;6.47;;
5833;SDS011;2943;48.012;10.968;2022-08-25T01:15:05;6.43;;;5.83;;
5833;SDS011;2943;48.012;10.968;2022-08-25T01:17:34;8.53;;;6.07;;
5833;SDS011;2943;48.012;10.968;2022-08-25T01:20:12;6.90;;;6.20;;
5833;SDS011;2943;48.012;10.968;2022-08-25T01:22:40;8.37;;;6.53;;
5833;SDS011;2943;48.012;10.968;2022-08-25T01:25:13;7.20;;;6.50;;
5833;SDS011;2943;48.012;10.968;2022-08-25T01:27:49;6.97;;;6.13;;
5833;SDS011;2943;48.012;10.968;2022-08-25T01:30:16;8.27;;;6.97;;
5833;SDS011;2943;48.012;10.968;2022-08-25T01:32:43;8.63;;;7.73;;
5833;SDS011;2943;48.012;10.968;2022-08-25T01:35:10;7.10;;;6.20;;
5833;SDS011;2943;48.012;10.968;2022-08-25T01:37:36;7.13;;;6.43;;
5833;SDS011;2943;48.012;10.968;2022-08-25T01:40:05;8.33;;;6.87;;
5833;SDS011;2943;48.012;10.968;2022-08-25T01:42:37;8.23;;;7.30;;
5833;SDS011;2943;48.012;10.968;2022-08-25T01:45:12;12.70;;;7.40;;
5833;SDS011;2943;48.012;10.968;2022-08-25T01:47:39;7.87;;;7.13;;
5833;SDS011;2943;48.012;10.968;2022-08-25T01:50:06;12.13;;;7.90;;
5833;SDS011;2943;48.012;10.968;2022-08-25T01:52:36;10.90;;;8.10;;
5833;SDS011;2943;48.012;10.968;2022-08-25T01:55:12;8.63;;;7.73;;
5833;SDS011;2943;48.012;10.968;2022-08-25T01:57:39;11.97;;;8.03;;
5833;SDS011;2943;48.012;10.968;2022-08-25T02:00:08;11.10;;;8.63;;
5833;SDS011;2943;48.012;10.968;2022-08-25T02:02:37;13.37;;;8.70;;
5833;SDS011;2943;48.012;10.968;2022-08-25T02:05:05;10.20;;;8.10;;
5833;SDS011;2943;48.012;10.968;2022-08-25T02:07:32;10.23;;;8.80;;
5833;SDS011;2943;48.012;10.968;2022-08-25T02:09:59;9.97;;;8.90;;
5833;SDS011;2943;48.012;10.968;2022-08-25T02:12:30;10.20;;;8.30;;
5833;SDS011;2943;48.012;10.968;2022-08-25T02:14:57;11.37;;;8.53;;
5833;SDS011;2943;48.012;10.968;2022-08-25T02:17:25;9.70;;;8.10;;
5833;SDS011;2943;48.012;10.968;2022-08-25T02:19:52;12.83;;;9.07;;
5833;SDS011;2943;48.012;10.968;2022-08-25T02:22:21;13.00;;;8.80;;
5833;SDS011;2943;48.012;10.968;2022-08-25T02:24:48;9.50;;;8.50;;
5833;SDS011;2943;48.012;10.968;2022-08-25T02:27:15;7.95;;;7.00;;
5833;SDS011;2943;48.012;10.968;2022-08-25T02:29:43;11.87;;;9.10;;
5833;SDS011;2943;48.012;10.968;2022-08-25T02:32:10;12.03;;;9.07;;
5833;SDS011;2943;48.012;10.968;2022-08-25T02:34:37;10.90;;;9.30;;
5833;SDS011;2943;48.012;10.968;2022-08-25T02:37:05;12.33;;;10.83;;
5833;SDS011;2943;48.012;10.968;2022-08-25T02:39:33;11.53;;;8.80;;
5833;SDS011;2943;48.012;10.968;2022-08-25T02:42:00;11.43;;;9.33;;
5833;SDS011;2943;48.012;10.968;2022-08-25T02:44:28;10.30;;;8.90;;
5833;SDS011;2943;48.012;10.968;2022-08-25T02:46:57;13.10;;;9.40;;
5833;SDS011;2943;48.012;10.968;2022-08-25T02:49:24;12.53;;;10.87;;
5833;SDS011;2943;48.012;10.968;2022-08-25T02:51:51;12.80;;;10.07;;
5833;SDS011;2943;48.012;10.968;2022-08-25T02:54:18;14.90;;;10.60;;
5833;SDS011;2943;48.012;10.968;2022-08-25T02:56:47;15.30;;;11.40;;
5833;SDS011;2943;48.012;10.968;2022-08-25T02:59:14;14.47;;;10.90;;
5833;SDS011;2943;48.012;10.968;2022-08-25T03:01:43;13.33;;;10.20;;
5833;SDS011;2943;48.012;10.968;2022-08-25T03:04:11;15.10;;;11.03;;
5833;SDS011;2943;48.012;10.968;2022-08-25T03:06:38;18.33;;;11.97;;
5833;SDS011;2943;48.012;10.968;2022-08-25T03:09:05;15.53;;;11.30;;
5833;SDS011;2943;48.012;10.968;2022-08-25T03:11:32;15.80;;;11.90;;
5833;SDS011;2943;48.012;10.968;2022-08-25T03:14:02;13.70;;;10.50;;
5833;SDS011;2943;48.012;10.968;2022-08-25T03:16:29;17.53;;;13.20;;
5833;SDS011;2943;48.012;10.968;2022-08-25T03:18:56;17.10;;;12.10;;
5833;SDS011;2943;48.012;10.968;2022-08-25T03:21:25;16.90;;;12.53;;
5833;SDS011;2943;48.012;10.968;2022-08-25T03:23:53;18.20;;;13.90;;
5833;SDS011;2943;48.012;10.968;2022-08-25T03:26:20;17.80;;;13.10;;
5833;SDS011;2943;48.012;10.968;2022-08-25T03:29:05;19.70;;;13.63;;
5833;SDS011;2943;48.012;10.968;2022-08-25T03:31:33;20.33;;;14.67;;
5833;SDS011;2943;48.012;10.968;2022-08-25T03:34:00;22.97;;;13.60;;
5833;SDS011;2943;48.012;10.968;2022-08-25T03:36:29;21.43;;;14.60;;
5833;SDS011;2943;48.012;10.968;2022-08-25T03:38:56;20.90;;;15.70;;
5833;SDS011;2943;48.012;10.968;2022-08-25T03:41:23;25.40;;;16.03;;
5833;SDS011;2943;48.012;10.968;2022-08-25T03:43:52;22.10;;;16.23;;
5833;SDS011;2943;48.012;10.968;2022-08-25T03:46:21;23.30;;;15.93;;
5833;SDS011;2943;48.012;10.968;2022-08-25T03:48:49;21.40;;;15.43;;
5833;SDS011;2943;48.012;10.968;2022-08-25T03:51:18;24.43;;;16.57;;
5833;SDS011;2943;48.012;10.968;2022-08-25T03:53:47;24.47;;;16.30;;
5833;SDS011;2943;48.012;10.968;2022-08-25T03:56:14;25.77;;;17.20;;
5833;SDS011;2943;48.012;10.968;2022-08-25T03:58:41;23.30;;;16.53;;
5833;SDS011;2943;48.012;10.968;2022-08-25T04:01:08;24.10;;;17.97;;
5833;SDS011;2943;48.012;10.968;2022-08-25T04:03:35;23.27;;;16.77;;
5833;SDS011;2943;48.012;10.968;2022-08-25T04:06:03;26.27;;;17.73;;
5833;SDS011;2943;48.012;10.968;2022-08-25T04:08:33;18.13;;;13.63;;
5833;SDS011;2943;48.012;10.968;2022-08-25T04:11:05;22.97;;;16.43;;
5833;SDS011;2943;48.012;10.968;2022-08-25T04:13:33;29.60;;;19.13;;
5833;SDS011;2943;48.012;10.968;2022-08-25T04:16:01;24.40;;;17.27;;
5833;SDS011;2943;48.012;10.968;2022-08-25T04:18:28;25.73;;;18.10;;
5833;SDS011;2943;48.012;10.968;2022-08-25T04:21:00;27.17;;;19.63;;
5833;SDS011;2943;48.012;10.968;2022-08-25T04:23:28;27.03;;;18.23;;
5833;SDS011;2943;48.012;10.968;2022-08-25T04:25:55;25.40;;;17.03;;
5833;SDS011;2943;48.012;10.968;2022-08-25T04:28:23;23.70;;;17.87;;
5833;SDS011;2943;48.012;10.968;2022-08-25T04:30:50;26.80;;;18.07;;
5833;SDS011;2943;48.012;10.968;2022-08-25T04:33:17;27.03;;;17.03;;
5833;SDS011;2943;48.012;10.968;2022-08-25T04:35:46;30.00;;;18.13;;
5833;SDS011;2943;48.012;10.968;2022-08-25T04:38:14;25.63;;;18.80;;
5833;SDS011;2943;48.012;10.968;2022-08-25T04:40:41;28.00;;;19.07;;
5833;SDS011;2943;48.012;10.968;2022-08-25T04:43:07;24.37;;;17.70;;
5833;SDS011;2943;48.012;10.968;2022-08-25T04:45:36;29.50;;;19.30;;
5833;SDS011;2943;48.012;10.968;2022-08-25T04:48:03;21.30;;;16.50;;
5833;SDS011;2943;48.012;10.968;2022-08-25T04:50:31;27.07;;;17.50;;
5833;SDS011;2943;48.012;10.968;2022-08-25T04:52:58;30.73;;;19.70;;
5833;SDS011;2943;48.012;10.968;2022-08-25T04:55:25;24.27;;;17.27;;
5833;SDS011;2943;48.012;10.968;2022-08-25T04:57:52;31.67;;;19.63;;
5833;SDS011;2943;48.012;10.968;2022-08-25T05:00:19;28.20;;;18.93;;
5833;SDS011;2943;48.012;10.968;2022-08-25T05:02:47;25.30;;;17.30;;
5833;SDS011;2943;48.012;10.968;2022-08-25T05:05:14;24.37;;;17.43;;
5833;SDS011;2943;48.012;10.968;2022-08-25T05:07:41;25.80;;;17.90;;
5833;SDS011;2943;48.012;10.968;2022-08-25T05:10:08;23.40;;;16.20;;
5833;SDS011;2943;48.012;10.968;2022-08-25T05:12:39;23.20;;;15.07;;
5833;SDS011;2943;48.012;10.968;2022-08-25T05:15:10;22.53;;;15.20;;
5833;SDS011;2943;48.012;10.968;2022-08-25T05:17:54;11.40;;;8.60;;
5833;SDS011;2943;48.012;10.968;2022-08-25T05:20:22;19.70;;;14.35;;
5833;SDS011;2943;48.012;10.968;2022-08-25T05:22:50;22.37;;;16.40;;
5833;SDS011;2943;48.012;10.968;2022-08-25T05:25:18;21.20;;;16.17;;
5833;SDS011;2943;48.012;10.968;2022-08-25T05:27:46;20.40;;;14.43;;
5833;SDS011;2943;48.012;10.968;2022-08-25T05:30:13;18.70;;;13.90;;
5833;SDS011;2943;48.012;10.968;2022-08-25T05:32:40;25.30;;;15.63;;
5833;SDS011;2943;48.012;10.968;2022-08-25T05:35:08;20.50;;;15.73;;
5833;SDS011;2943;48.012;10.968;2022-08-25T05:37:36;22.33;;;15.73;;
5833;SDS011;2943;48.012;10.968;2022-08-25T05:40:03;22.30;;;15.10;;
5833;SDS011;2943;48.012;10.968;2022-08-25T05:42:31;24.10;;;17.17;;
5833;SDS011;2943;48.012;10.968;2022-08-25T05:44:58;23.67;;;16.87;;
5833;SDS011;2943;48.012;10.968;2022-08-25T05:47:25;22.83;;;15.00;;
5833;SDS011;2943;48.012;10.968;2022-08-25T05:49:51;24.83;;;17.80;;
5833;SDS011;2943;48.012;10.968;2022-08-25T05:52:20;29.27;;;18.03;;
5833;SDS011;2943;48.012;10.968;2022-08-25T05:54:47;25.13;;;17.47;;
5833;SDS011;2943;48.012;10.968;2022-08-25T05:57:14;33.27;;;20.60;;
5833;SDS011;2943;48.012;10.968;2022-08-25T05:59:41;28.00;;;17.90;;
5833;SDS011;2943;48.012;10.968;2022-08-25T06:02:08;27.00;;;18.67;;
5833;SDS011;2943;48.012;10.968;2022-08-25T06:04:52;32.43;;;20.17;;
5833;SDS011;2943;48.012;10.968;2022-08-25T06:07:20;37.87;;;22.47;;
5833;SDS011;2943;48.012;10.968;2022-08-25T06:09:47;35.80;;;21.80;;
5833;SDS011;2943;48.012;10.968;2022-08-25T06:12:15;42.17;;;23.87;;
5833;SDS011;2943;48.012;10.968;2022-08-25T06:14:43;36.00;;;21.80;;
5833;SDS011;2943;48.012;10.968;2022-08-25T06:17:09;33.17;;;20.87;;
5833;SDS011;2943;48.012;10.968;2022-08-25T06:19:36;35.37;;;20.73;;
5833;SDS011;2943;48.012;10.968;2022-08-25T06:22:03;32.43;;;20.67;;
5833;SDS011;2943;48.012;10.968;2022-08-25T06:24:32;29.17;;;21.03;;
5833;SDS011;2943;48.012;10.968;2022-08-25T06:26:59;33.43;;;21.50;;
5833;SDS011;2943;48.012;10.968;2022-08-25T06:29:26;34.47;;;22.00;;
5833;SDS011;2943;48.012;10.968;2022-08-25T06:31:53;34.40;;;21.87;;
5833;SDS011;2943;48.012;10.968;2022-08-25T06:34:20;35.33;;;21.70;;
5833;SDS011;2943;48.012;10.968;2022-08-25T06:36:46;32.17;;;21.00;;
5833;SDS011;2943;48.012;10.968;2022-08-25T06:39:14;30.00;;;21.23;;
5833;SDS011;2943;48.012;10.968;2022-08-25T06:41:43;33.50;;;22.33;;
5833;SDS011;2943;48.012;10.968;2022-08-25T06:44:10;27.07;;;20.33;;
5833;SDS011;2943;48.012;10.968;2022-08-25T06:46:37;34.07;;;21.67;;
5833;SDS011;2943;48.012;10.968;2022-08-25T06:49:04;30.93;;;21.60;;
5833;SDS011;2943;48.012;10.968;2022-08-25T06:51:32;34.60;;;20.83;;
5833;SDS011;2943;48.012;10.968;2022-08-25T06:54:00;33.03;;;22.90;;
5833;SDS011;2943;48.012;10.968;2022-08-25T06:56:27;30.27;;;21.10;;
5833;SDS011;2943;48.012;10.968;2022-08-25T06:58:56;28.33;;;20.60;;
5833;SDS011;2943;48.012;10.968;2022-08-25T07:01:23;31.10;;;20.70;;
5833;SDS011;2943;48.012;10.968;2022-08-25T07:03:52;28.57;;;20.40;;
5833;SDS011;2943;48.012;10.968;2022-08-25T07:06:21;29.67;;;20.67;;
5833;SDS011;2943;48.012;10.968;2022-08-25T07:08:48;28.03;;;20.13;;
5833;SDS011;2943;48.012;10.968;2022-08-25T07:11:15;25.60;;;18.90;;
5833;SDS011;2943;48.012;10.968;2022-08-25T07:13:44;30.13;;;19.23;;
5833;SDS011;2943;48.012;10.968;2022-08-25T07:16:13;30.63;;;19.33;;
5833;SDS011;2943;48.012;10.968;2022-08-25T07:18:40;25.63;;;18.47;;
5833;SDS011;2943;48.012;10.968;2022-08-25T07:21:07;22.50;;;17.30;;
5833;SDS011;2943;48.012;10.968;2022-08-25T07:23:34;25.27;;;17.50;;
5833;SDS011;2943;48.012;10.968;2022-08-25T07:26:06;24.37;;;16.60;;
5833;SDS011;2943;48.012;10.968;2022-08-25T07:28:35;23.80;;;17.80;;
5833;SDS011;2943;48.012;10.968;2022-08-25T07:31:02;20.47;;;15.57;;
5833;SDS011;2943;48.012;10.968;2022-08-25T07:33:31;19.53;;;14.50;;
5833;SDS011;2943;48.012;10.968;2022-08-25T07:35:57;17.17;;;13.47;;
5833;SDS011;2943;48.012;10.968;2022-08-25T07:38:23;24.67;;;17.90;;
5833;SDS011;2943;48.012;10.968;2022-08-25T07:40:50;21.60;;;15.30;;
5833;SDS011;2943;48.012;10.968;2022-08-25T07:43:20;20.83;;;15.60;;
5833;SDS011;2943;48.012;10.968;2022-08-25T07:45:47;17.83;;;14.87;;
5833;SDS011;2943;48.012;10.968;2022-08-25T07:48:14;17.30;;;14.40;;
5833;SDS011;2943;48.012;10.968;2022-08-25T07:50:45;14.20;;;12.30;;
5833;SDS011;2943;48.012;10.968;2022-08-25T07:53:14;13.07;;;11.00;;
5833;SDS011;2943;48.012;10.968;2022-08-25T07:55:42;14.87;;;11.07;;
5833;SDS011;2943;48.012;10.968;2022-08-25T07:58:09;10.30;;;9.20;;
5833;SDS011;2943;48.012;10.968;2022-08-25T08:00:36;36.60;;;10.67;;
5833;SDS011;2943;48.012;10.968;2022-08-25T08:03:06;10.73;;;9.63;;
5833;SDS011;2943;48.012;10.968;2022-08-25T08:05:34;10.93;;;9.80;;
5833;SDS011;2943;48.012;10.968;2022-08-25T08:08:06;11.70;;;8.47;;
5833;SDS011;2943;48.012;10.968;2022-08-25T08:10:33;13.67;;;10.60;;
5833;SDS011;2943;48.012;10.968;2022-08-25T08:13:00;12.00;;;9.20;;
5833;SDS011;2943;48.012;10.968;2022-08-25T08:15:27;13.70;;;10.47;;
5833;SDS011;2943;48.012;10.968;2022-08-25T08:17:53;10.20;;;9.20;;
5833;SDS011;2943;48.012;10.968;2022-08-25T08:20:20;11.50;;;10.00;;
5833;SDS011;2943;48.012;10.968;2022-08-25T08:22:47;11.00;;;8.90;;
5833;SDS011;2943;48.012;10.968;2022-08-25T08:25:15;18.63;;;11.40;;
5833;SDS011;2943;48.012;10.968;2022-08-25T08:27:42;12.93;;;11.63;;
5833;SDS011;2943;48.012;10.968;2022-08-25T08:30:10;12.30;;;9.63;;
5833;SDS011;2943;48.012;10.968;2022-08-25T08:32:38;12.77;;;10.93;;
5833;SDS011;2943;48.012;10.968;2022-08-25T08:35:05;12.17;;;9.73;;
5833;SDS011;2943;48.012;10.968;2022-08-25T08:37:33;10.63;;;9.07;;
5833;SDS011;2943;48.012;10.968;2022-08-25T08:40:03;10.50;;;9.00;;
5833;SDS011;2943;48.012;10.968;2022-08-25T08:42:38;11.73;;;9.80;;
5833;SDS011;2943;48.012;10.968;2022-08-25T08:51:05;12.20;;;9.50;;
5833;SDS011;2943;48.012;10.968;2022-08-25T08:53:42;13.80;;;9.00;;
5833;SDS011;2943;48.012;10.968;2022-08-25T08:56:12;15.93;;;10.07;;
5833;SDS011;2943;48.012;10.968;2022-08-25T08:58:43;10.83;;;8.50;;
5833;SDS011;2943;48.012;10.968;2022-08-25T09:01:15;10.17;;;8.47;;
5833;SDS011;2943;48.012;10.968;2022-08-25T09:03:45;12.73;;;8.23;;
5833;SDS011;2943;48.012;10.968;2022-08-25T09:06:17;11.23;;;7.80;;
5833;SDS011;2943;48.012;10.968;2022-08-25T09:08:49;9.57;;;8.57;;
5833;SDS011;2943;48.012;10.968;2022-08-25T09:11:21;15.03;;;9.30;;
5833;SDS011;2943;48.012;10.968;2022-08-25T09:13:59;10.93;;;9.37;;
5833;SDS011;2943;48.012;10.968;2022-08-25T09:16:36;9.00;;;8.07;;
5833;SDS011;2943;48.012;10.968;2022-08-25T09:19:44;9.73;;;8.40;;
5833;SDS011;2943;48.012;10.968;2022-08-25T09:22:31;9.90;;;8.30;;
5833;SDS011;2943;48.012;10.968;2022-08-25T09:25:10;8.23;;;7.40;;
5833;SDS011;2943;48.012;10.968;2022-08-25T09:27:45;9.87;;;8.47;;
5833;SDS011;2943;48.012;10.968;2022-08-25T09:30:20;9.00;;;8.10;;
5833;SDS011;2943;48.012;10.968;2022-08-25T09:32:49;10.57;;;7.60;;
5833;SDS011;2943;48.012;10.968;2022-08-25T09:35:19;9.10;;;8.20;;
5833;SDS011;2943;48.012;10.968;2022-08-25T09:37:56;9.33;;;8.10;;
5833;SDS011;2943;48.012;10.968;2022-08-25T09:40:24;9.43;;;7.67;;
5833;SDS011;2943;48.012;10.968;2022-08-25T09:42:54;7.63;;;6.70;;
5833;SDS011;2943;48.012;10.968;2022-08-25T09:45:35;7.83;;;7.03;;
5833;SDS011;2943;48.012;10.968;2022-08-25T09:48:20;7.80;;;7.00;;
5833;SDS011;2943;48.012;10.968;2022-08-25T09:50:49;7.10;;;6.40;;
5833;SDS011;2943;48.012;10.968;2022-08-25T09:53:19;7.30;;;6.60;;
5833;SDS011;2943;48.012;10.968;2022-08-25T09:55:51;9.07;;;7.00;;
5833;SDS011;2943;48.012;10.968;2022-08-25T09:58:22;7.20;;;6.50;;
5833;SDS011;2943;48.012;10.968;2022-08-25T10:03:59;7.27;;;6.53;;
5833;SDS011;2943;48.012;10.968;2022-08-25T10:06:29;6.47;;;5.80;;
5833;SDS011;2943;48.012;10.968;2022-08-25T10:09:01;12.67;;;6.37;;
5833;SDS011;2943;48.012;10.968;2022-08-25T10:11:34;7.93;;;6.10;;
5833;SDS011;2943;48.012;10.968;2022-08-25T10:14:07;6.07;;;5.47;;
5833;SDS011;2943;48.012;10.968;2022-08-25T10:16:44;6.83;;;5.43;;
5833;SDS011;2943;48.012;10.968;2022-08-25T10:19:12;7.00;;;5.40;;
5833;SDS011;2943;48.012;10.968;2022-08-25T10:22:00;7.33;;;5.37;;
5833;SDS011;2943;48.012;10.968;2022-08-25T10:24:30;8.13;;;5.80;;
5833;SDS011;2943;48.012;10.968;2022-08-25T10:26:59;6.27;;;5.63;;
5833;SDS011;2943;48.012;10.968;2022-08-25T10:29:41;12.60;;;5.70;;
5833;SDS011;2943;48.012;10.968;2022-08-25T10:32:29;10.13;;;6.10;;
5833;SDS011;2943;48.012;10.968;2022-08-25T10:35:03;8.37;;;5.40;;
5833;SDS011;2943;48.012;10.968;2022-08-25T10:37:40;7.83;;;5.30;;
5833;SDS011;2943;48.012;10.968;2022-08-25T10:40:19;7.73;;;5.20;;
5833;SDS011;2943;48.012;10.968;2022-08-25T10:42:52;6.50;;;5.20;;
5833;SDS011;2943;48.012;10.968;2022-08-25T10:45:27;5.50;;;5.10;;
5833;SDS011;2943;48.012;10.968;2022-08-25T10:54:16;9.20;;;5.27;;
5833;SDS011;2943;48.012;10.968;2022-08-25T10:56:52;5.67;;;5.13;;
5833;SDS011;2943;48.012;10.968;2022-08-25T10:59:30;5.53;;;4.30;;
5833;SDS011;2943;48.012;10.968;2022-08-25T11:02:22;5.13;;;4.70;;
5833;SDS011;2943;48.012;10.968;2022-08-25T11:05:16;7.40;;;5.17;;
5833;SDS011;2943;48.012;10.968;2022-08-25T11:07:50;5.27;;;4.83;;
5833;SDS011;2943;48.012;10.968;2022-08-25T11:10:21;5.70;;;4.87;;
5833;SDS011;2943;48.012;10.968;2022-08-25T11:12:53;5.33;;;4.73;;
5833;SDS011;2943;48.012;10.968;2022-08-25T11:15:24;8.27;;;5.27;;
5833;SDS011;2943;48.012;10.968;2022-08-25T11:17:54;6.83;;;5.63;;
5833;SDS011;2943;48.012;10.968;2022-08-25T11:20:29;5.63;;;5.13;;
5833;SDS011;2943;48.012;10.968;2022-08-25T11:23:05;8.83;;;5.30;;
5833;SDS011;2943;48.012;10.968;2022-08-25T11:25:36;5.83;;;5.10;;
5833;SDS011;2943;48.012;10.968;2022-08-25T11:28:07;7.43;;;4.87;;
5833;SDS011;2943;48.012;10.968;2022-08-25T11:30:38;5.30;;;4.80;;
5833;SDS011;2943;48.012;10.968;2022-08-25T11:33:05;5.83;;;5.20;;
5833;SDS011;2943;48.012;10.968;2022-08-25T11:35:38;4.57;;;4.17;;
5833;SDS011;2943;48.012;10.968;2022-08-25T11:38:14;6.60;;;5.40;;
5833;SDS011;2943;48.012;10.968;2022-08-25T11:40:55;8.53;;;4.80;;
5833;SDS011;2943;48.012;10.968;2022-08-25T11:43:35;6.27;;;4.80;;
5833;SDS011;2943;48.012;10.968;2022-08-25T11:46:18;5.07;;;4.67;;
5833;SDS011;2943;48.012;10.968;2022-08-25T11:48:55;6.30;;;4.70;;
5833;SDS011;2943;48.012;10.968;2022-08-25T11:51:33;5.27;;;4.10;;
5833;SDS011;2943;48.012;10.968;2022-08-25T11:54:19;7.83;;;5.50;;
5833;SDS011;2943;48.012;10.968;2022-08-25T11:56:50;5.70;;;4.93;;
5833;SDS011;2943;48.012;10.968;2022-08-25T12:02:28;5.37;;;4.70;;
5833;SDS011;2943;48.012;10.968;2022-08-25T12:04:57;6.47;;;4.43;;
5833;SDS011;2943;48.012;10.968;2022-08-25T12:07:27;7.30;;;4.67;;
5833;SDS011;2943;48.012;10.968;2022-08-25T12:13:04;4.60;;;4.20;;
5833;SDS011;2943;48.012;10.968;2022-08-25T12:15:55;4.30;;;4.00;;
5833;SDS011;2943;48.012;10.968;2022-08-25T12:18:37;6.00;;;3.93;;
5833;SDS011;2943;48.012;10.968;2022-08-25T12:21:14;3.80;;;3.50;;
5833;SDS011;2943;48.012;10.968;2022-08-25T12:24:07;4.00;;;3.70;;
5833;SDS011;2943;48.012;10.968;2022-08-25T12:26:41;4.00;;;3.60;;
5833;SDS011;2943;48.012;10.968;2022-08-25T12:29:14;6.60;;;4.00;;
5833;SDS011;2943;48.012;10.968;2022-08-25T12:31:51;4.90;;;4.40;;
5833;SDS011;2943;48.012;10.968;2022-08-25T12:34:35;6.87;;;3.93;;
5833;SDS011;2943;48.012;10.968;2022-08-25T12:37:17;4.27;;;3.97;;
5833;SDS011;2943;48.012;10.968;2022-08-25T12:39:53;4.67;;;4.27;;
5833;SDS011;2943;48.012;10.968;2022-08-25T12:42:27;4.17;;;3.77;;
5833;SDS011;2943;48.012;10.968;2022-08-25T12:45:10;4.00;;;3.70;;
5833;SDS011;2943;48.012;10.968;2022-08-25T12:47:40;3.97;;;3.67;;
5833;SDS011;2943;48.012;10.968;2022-08-25T12:53:08;3.80;;;3.50;;
5833;SDS011;2943;48.012;10.968;2022-08-25T12:55:41;3.97;;;3.67;;
5833;SDS011;2943;48.012;10.968;2022-08-25T12:58:12;4.43;;;3.67;;
5833;SDS011;2943;48.012;10.968;2022-08-25T13:00:46;6.83;;;3.70;;
5833;SDS011;2943;48.012;10.968;2022-08-25T13:03:44;4.00;;;3.60;;
5833;SDS011;2943;48.012;10.968;2022-08-25T13:06:43;5.13;;;3.40;;
5833;SDS011;2943;48.012;10.968;2022-08-25T13:12:32;5.77;;;3.83;;
5833;SDS011;2943;48.012;10.968;2022-08-25T13:15:05;3.40;;;3.10;;
5833;SDS011;2943;48.012;10.968;2022-08-25T13:17:36;4.10;;;3.70;;
5833;SDS011;2943;48.012;10.968;2022-08-25T13:20:11;3.50;;;3.20;;
5833;SDS011;2943;48.012;10.968;2022-08-25T13:22:39;5.00;;;3.70;;
5833;SDS011;2943;48.012;10.968;2022-08-25T13:25:13;3.30;;;3.10;;
5833;SDS011;2943;48.012;10.968;2022-08-25T13:27:43;3.60;;;3.30;;
5833;SDS011;2943;48.012;10.968;2022-08-25T13:30:18;4.30;;;3.73;;
5833;SDS011;2943;48.012;10.968;2022-08-25T13:32:49;4.50;;;4.00;;
5833;SDS011;2943;48.012;10.968;2022-08-25T13:35:17;5.77;;;3.47;;
5833;SDS011;2943;48.012;10.968;2022-08-25T13:37:46;4.47;;;3.33;;
5833;SDS011;2943;48.012;10.968;2022-08-25T13:40:13;4.30;;;3.90;;
5833;SDS011;2943;48.012;10.968;2022-08-25T13:42:44;4.10;;;3.20;;
5833;SDS011;2943;48.012;10.968;2022-08-25T13:45:13;6.13;;;3.43;;
5833;SDS011;2943;48.012;10.968;2022-08-25T13:47:42;4.03;;;3.60;;
5833;SDS011;2943;48.012;10.968;2022-08-25T13:50:19;3.73;;;3.20;;
5833;SDS011;2943;48.012;10.968;2022-08-25T13:52:54;3.80;;;3.50;;
5833;SDS011;2943;48.012;10.968;2022-08-25T13:55:24;6.90;;;3.70;;
5833;SDS011;2943;48.012;10.968;2022-08-25T13:57:54;3.50;;;3.20;;
5833;SDS011;2943;48.012;10.968;2022-08-25T14:00:27;6.00;;;3.40;;
5833;SDS011;2943;48.012;10.968;2022-08-25T14:02:57;4.37;;;3.70;;
5833;SDS011;2943;48.012;10.968;2022-08-25T14:05:29;4.88;;;3.20;;
5833;SDS011;2943;48.012;10.968;2022-08-25T14:07:59;3.92;;;3.55;;
5833;SDS011;2943;48.012;10.968;2022-08-25T14:10:31;3.63;;;3.33;;
5833;SDS011;2943;48.012;10.968;2022-08-25T14:13:10;3.78;;;3.35;;
5833;SDS011;2943;48.012;10.968;2022-08-25T14:15:40;3.33;;;3.03;;
5833;SDS011;2943;48.012;10.968;2022-08-25T14:18:09;3.17;;;2.83;;
5833;SDS011;2943;48.012;10.968;2022-08-25T14:20:43;3.10;;;2.90;;
5833;SDS011;2943;48.012;10.968;2022-08-25T14:23:14;7.93;;;4.55;;
5833;SDS011;2943;48.012;10.968;2022-08-25T14:25:43;4.90;;;3.78;;
5833;SDS011;2943;48.012;10.968;2022-08-25T14:28:12;3.10;;;2.90;;
5833;SDS011;2943;48.012;10.968;2022-08-25T14:30:42;3.42;;;3.20;;
5833;SDS011;2943;48.012;10.968;2022-08-25T14:33:11;3.83;;;3.45;;
5833;SDS011;2943;48.012;10.968;2022-08-25T14:35:40;5.32;;;2.97;;
5833;SDS011;2943;48.012;10.968;2022-08-25T14:38:10;4.63;;;3.60;;
5833;SDS011;2943;48.012;10.968;2022-08-25T14:40:37;3.65;;;3.35;;
5833;SDS011;2943;48.012;10.968;2022-08-25T14:43:04;3.38;;;3.08;;
5833;SDS011;2943;48.012;10.968;2022-08-25T14:45:33;3.05;;;2.85;;
5833;SDS011;2943;48.012;10.968;2022-08-25T14:48:03;5.40;;;3.50;;
5833;SDS011;2943;48.012;10.968;2022-08-25T14:50:31;3.47;;;3.17;;
5833;SDS011;2943;48.012;10.968;2022-08-25T14:52:59;3.42;;;3.13;;
5833;SDS011;2943;48.012;10.968;2022-08-25T14:55:27;3.47;;;3.00;;
5833;SDS011;2943;48.012;10.968;2022-08-25T14:57:54;8.88;;;3.20;;
5833;SDS011;2943;48.012;10.968;2022-08-25T15:00:21;3.00;;;2.70;;
5833;SDS011;2943;48.012;10.968;2022-08-25T15:02:49;4.22;;;2.90;;
5833;SDS011;2943;48.012;10.968;2022-08-25T15:05:19;3.35;;;3.05;;
5833;SDS011;2943;48.012;10.968;2022-08-25T15:07:48;2.80;;;2.60;;
5833;SDS011;2943;48.012;10.968;2022-08-25T15:10:33;4.38;;;2.90;;
5833;SDS011;2943;48.012;10.968;2022-08-25T15:13:00;3.15;;;2.85;;
5833;SDS011;2943;48.012;10.968;2022-08-25T15:15:27;3.35;;;3.15;;
5833;SDS011;2943;48.012;10.968;2022-08-25T15:17:56;3.00;;;2.70;;
5833;SDS011;2943;48.012;10.968;2022-08-25T15:20:23;3.30;;;3.00;;
5833;SDS011;2943;48.012;10.968;2022-08-25T15:22:50;3.17;;;2.88;;
5833;SDS011;2943;48.012;10.968;2022-08-25T15:25:17;5.53;;;3.85;;
5833;SDS011;2943;48.012;10.968;2022-08-25T15:27:45;4.15;;;2.92;;
5833;SDS011;2943;48.012;10.968;2022-08-25T15:30:12;5.07;;;2.83;;
5833;SDS011;2943;48.012;10.968;2022-08-25T15:32:40;3.42;;;3.17;;
5833;SDS011;2943;48.012;10.968;2022-08-25T15:35:08;3.75;;;3.10;;
5833;SDS011;2943;48.012;10.968;2022-08-25T15:37:36;3.38;;;3.08;;